sensor_id;sensor_type;location;lat;lon;timestamp;temperature;humidity
8402;DHT22;4238;48.404;9.498;2023-04-06T05:46:06;-1.20;1.00
8402;DHT22;4238;48.404;9.498;2023-04-06T05:48:33;-1.10;99.90
8402;DHT22;4238;48.404;9.498;2023-04-06T05:51:00;-1.00;99.90
8402;DHT22;4238;48.404;9.498;2023-04-06T05:53:31;-0.80;99.90
8402;DHT22;4238;48.404;9.498;2023-04-06T05:56:00;-0.70;99.90
8402;DHT22;4238;48.404;9.498;2023-04-06T05:58:27;-0.60;99.90
8402;DHT22;4238;48.404;9.498;2023-04-06T06:00:57;-0.40;27.90
8402;DHT22;4238;48.404;9.498;2023-04-06T06:03:25;-0.20;5.00
8402;DHT22;4238;48.404;9.498;2023-04-06T06:05:52;0.10;99.90
8402;DHT22;4238;48.404;9.498;2023-04-06T06:08:19;0.20;1.00
8402;DHT22;4238;48.404;9.498;2023-04-06T06:10:46;0.50;99.90
8402;DHT22;4238;48.404;9.498;2023-04-06T06:13:15;0.50;1.00
8402;DHT22;4238;48.404;9.498;2023-04-06T06:15:42;0.70;99.90
8402;DHT22;4238;48.404;9.498;2023-04-06T06:18:09;0.70;99.90
8402;DHT22;4238;48.404;9.498;2023-04-06T06:20:37;1.00;99.90
8402;DHT22;4238;48.404;9.498;2023-04-06T06:23:05;1.10;27.20
8402;DHT22;4238;48.404;9.498;2023-04-06T06:25:32;1.20;1.00
8402;DHT22;4238;48.404;9.498;2023-04-06T06:27:59;1.30;1.00
8402;DHT22;4238;48.404;9.498;2023-04-06T06:30:26;1.50;99.90
8402;DHT22;4238;48.404;9.498;2023-04-06T06:32:53;1.60;99.90
8402;DHT22;4238;48.404;9.498;2023-04-06T06:35:20;1.90;1.00
8402;DHT22;4238;48.404;9.498;2023-04-06T06:37:48;2.20;2.10
8402;DHT22;4238;48.404;9.498;2023-04-06T06:40:16;2.50;1.00
8402;DHT22;4238;48.404;9.498;2023-04-06T06:42:43;2.70;99.90
8402;DHT22;4238;48.404;9.498;2023-04-06T06:45:10;2.90;1.00
8402;DHT22;4238;48.404;9.498;2023-04-06T06:47:37;3.20;1.00
8402;DHT22;4238;48.404;9.498;2023-04-06T06:50:05;3.40;1.00
8402;DHT22;4238;48.404;9.498;2023-04-06T06:52:32;3.60;1.00
8402;DHT22;4238;48.404;9.498;2023-04-06T06:55:01;4.00;1.00
8402;DHT22;4238;48.404;9.498;2023-04-06T06:57:28;4.10;99.90
8402;DHT22;4238;48.404;9.498;2023-04-06T06:59:55;4.40;99.90
8402;DHT22;4238;48.404;9.498;2023-04-06T07:02:22;4.70;99.90
8402;DHT22;4238;48.404;9.498;2023-04-06T07:04:49;4.80;1.00
8402;DHT22;4238;48.404;9.498;2023-04-06T07:07:16;5.10;1.00
8402;DHT22;4238;48.404;9.498;2023-04-06T07:09:43;5.40;1.00
8402;DHT22;4238;48.404;9.498;2023-04-06T07:12:11;5.70;1.00
8402;DHT22;4238;48.404;9.498;2023-04-06T07:14:38;5.80;1.00
8402;DHT22;4238;48.404;9.498;2023-04-06T07:17:06;6.00;99.90
8402;DHT22;4238;48.404;9.498;2023-04-06T07:19:33;6.30;99.90
8402;DHT22;4238;48.404;9.498;2023-04-06T07:22:00;6.60;99.90
8402;DHT22;4238;48.404;9.498;2023-04-06T07:24:28;6.80;99.90
8402;DHT22;4238;48.404;9.498;2023-04-06T07:26:55;7.00;56.70
8402;DHT22;4238;48.404;9.498;2023-04-06T07:29:23;7.30;1.00
8402;DHT22;4238;48.404;9.498;2023-04-06T07:31:50;7.70;1.00
8402;DHT22;4238;48.404;9.498;2023-04-06T07:34:18;8.00;1.00
8402;DHT22;4238;48.404;9.498;2023-04-06T07:36:45;8.20;1.00
8402;DHT22;4238;48.404;9.498;2023-04-06T07:39:12;8.40;1.00
8402;DHT22;4238;48.404;9.498;2023-04-06T07:41:39;8.70;1.00
8402;DHT22;4238;48.404;9.498;2023-04-06T07:44:06;8.80;1.00
8402;DHT22;4238;48.404;9.498;2023-04-06T07:46:34;9.10;1.00
8402;DHT22;4238;48.404;9.498;2023-04-06T07:49:02;8.90;1.00
8402;DHT22;4238;48.404;9.498;2023-04-06T07:51:29;9.10;1.00
8402;DHT22;4238;48.404;9.498;2023-04-06T07:53:56;9.50;1.00
8402;DHT22;4238;48.404;9.498;2023-04-06T07:56:23;9.50;1.00
8402;DHT22;4238;48.404;9.498;2023-04-06T07:58:50;9.60;1.00
8402;DHT22;4238;48.404;9.498;2023-04-06T08:01:17;9.60;99.90
8402;DHT22;4238;48.404;9.498;2023-04-06T08:03:46;9.70;99.90
8402;DHT22;4238;48.404;9.498;2023-04-06T08:06:13;9.90;99.90
8402;DHT22;4238;48.404;9.498;2023-04-06T08:08:40;10.10;99.90
8402;DHT22;4238;48.404;9.498;2023-04-06T08:11:08;10.20;99.90
8402;DHT22;4238;48.404;9.498;2023-04-06T08:13:35;10.50;99.90
8402;DHT22;4238;48.404;9.498;2023-04-06T08:16:02;9.80;99.90
8402;DHT22;4238;48.404;9.498;2023-04-06T08:18:29;10.20;99.90
8402;DHT22;4238;48.404;9.498;2023-04-06T08:20:57;10.60;99.90
8402;DHT22;4238;48.404;9.498;2023-04-06T08:23:24;10.40;99.90
8402;DHT22;4238;48.404;9.498;2023-04-06T08:25:51;10.70;99.90
8402;DHT22;4238;48.404;9.498;2023-04-06T08:28:19;10.90;99.90
8402;DHT22;4238;48.404;9.498;2023-04-06T08:30:47;10.20;99.90
8402;DHT22;4238;48.404;9.498;2023-04-06T08:33:14;10.80;99.90
8402;DHT22;4238;48.404;9.498;2023-04-06T08:35:41;11.20;99.90
8402;DHT22;4238;48.404;9.498;2023-04-06T08:38:09;11.70;99.90
8402;DHT22;4238;48.404;9.498;2023-04-06T08:40:37;11.70;99.90
8402;DHT22;4238;48.404;9.498;2023-04-06T08:43:06;11.40;99.90
8402;DHT22;4238;48.404;9.498;2023-04-06T08:45:34;11.60;99.90
8402;DHT22;4238;48.404;9.498;2023-04-06T08:48:02;12.00;99.90
8402;DHT22;4238;48.404;9.498;2023-04-06T08:50:30;11.80;99.90
8402;DHT22;4238;48.404;9.498;2023-04-06T08:52:59;11.70;99.90
8402;DHT22;4238;48.404;9.498;2023-04-06T08:55:28;11.90;99.90
8402;DHT22;4238;48.404;9.498;2023-04-06T08:57:56;11.30;99.90
8402;DHT22;4238;48.404;9.498;2023-04-06T09:00:24;11.60;99.90
8402;DHT22;4238;48.404;9.498;2023-04-06T09:02:54;12.10;99.90
8402;DHT22;4238;48.404;9.498;2023-04-06T09:05:22;12.40;99.90
8402;DHT22;4238;48.404;9.498;2023-04-06T09:07:50;12.50;99.90
8402;DHT22;4238;48.404;9.498;2023-04-06T09:10:17;12.90;99.90
8402;DHT22;4238;48.404;9.498;2023-04-06T09:12:47;13.30;99.90
8402;DHT22;4238;48.404;9.498;2023-04-06T09:15:18;12.40;99.90
8402;DHT22;4238;48.404;9.498;2023-04-06T09:17:46;12.60;99.90
8402;DHT22;4238;48.404;9.498;2023-04-06T09:20:13;12.10;99.90
8402;DHT22;4238;48.404;9.498;2023-04-06T09:22:40;12.50;99.90
8402;DHT22;4238;48.404;9.498;2023-04-06T09:25:09;12.90;99.90
8402;DHT22;4238;48.404;9.498;2023-04-06T09:27:37;12.40;99.90
8402;DHT22;4238;48.404;9.498;2023-04-06T09:30:08;13.10;99.90
8402;DHT22;4238;48.404;9.498;2023-04-06T09:32:48;13.40;99.90
8402;DHT22;4238;48.404;9.498;2023-04-06T09:35:16;12.80;99.90
8402;DHT22;4238;48.404;9.498;2023-04-06T09:37:46;13.00;99.90
8402;DHT22;4238;48.404;9.498;2023-04-06T09:40:14;13.10;99.90
8402;DHT22;4238;48.404;9.498;2023-04-06T09:42:45;13.00;99.90
8402;DHT22;4238;48.404;9.498;2023-04-06T09:45:14;12.70;99.90
8402;DHT22;4238;48.404;9.498;2023-04-06T09:47:43;13.50;99.90
8402;DHT22;4238;48.404;9.498;2023-04-06T09:50:12;14.30;99.90
8402;DHT22;4238;48.404;9.498;2023-04-06T09:52:42;13.20;99.90
8402;DHT22;4238;48.404;9.498;2023-04-06T09:55:12;12.60;99.90
8402;DHT22;4238;48.404;9.498;2023-04-06T09:57:48;13.50;99.90
8402;DHT22;4238;48.404;9.498;2023-04-06T10:00:22;13.70;99.90
8402;DHT22;4238;48.404;9.498;2023-04-06T10:02:53;14.30;99.90
8402;DHT22;4238;48.404;9.498;2023-04-06T10:05:28;14.50;99.90
8402;DHT22;4238;48.404;9.498;2023-04-06T10:08:00;13.80;99.90
8402;DHT22;4238;48.404;9.498;2023-04-06T10:10:28;14.40;99.90
8402;DHT22;4238;48.404;9.498;2023-04-06T10:12:56;14.60;99.90
8402;DHT22;4238;48.404;9.498;2023-04-06T10:15:26;14.80;99.90
8402;DHT22;4238;48.404;9.498;2023-04-06T10:17:54;14.10;99.90
8402;DHT22;4238;48.404;9.498;2023-04-06T10:20:25;14.80;99.90
8402;DHT22;4238;48.404;9.498;2023-04-06T10:22:57;15.40;99.90
8402;DHT22;4238;48.404;9.498;2023-04-06T10:25:27;15.70;99.90
8402;DHT22;4238;48.404;9.498;2023-04-06T10:27:59;14.80;99.90
8402;DHT22;4238;48.404;9.498;2023-04-06T10:30:28;15.30;99.90
8402;DHT22;4238;48.404;9.498;2023-04-06T10:32:55;16.00;99.90
8402;DHT22;4238;48.404;9.498;2023-04-06T10:35:22;16.50;99.90
8402;DHT22;4238;48.404;9.498;2023-04-06T10:37:52;16.30;99.90
8402;DHT22;4238;48.404;9.498;2023-04-06T10:40:22;16.00;99.90
8402;DHT22;4238;48.404;9.498;2023-04-06T10:42:50;16.50;99.90
8402;DHT22;4238;48.404;9.498;2023-04-06T10:45:21;15.30;99.90
8402;DHT22;4238;48.404;9.498;2023-04-06T10:47:50;15.30;99.90
8402;DHT22;4238;48.404;9.498;2023-04-06T10:50:18;15.70;99.90
8402;DHT22;4238;48.404;9.498;2023-04-06T10:52:46;15.80;99.90
8402;DHT22;4238;48.404;9.498;2023-04-06T10:55:15;16.20;99.90
8402;DHT22;4238;48.404;9.498;2023-04-06T10:57:42;16.00;99.90
8402;DHT22;4238;48.404;9.498;2023-04-06T11:00:12;14.90;99.90
8402;DHT22;4238;48.404;9.498;2023-04-06T11:02:39;14.40;99.90
8402;DHT22;4238;48.404;9.498;2023-04-06T11:05:08;15.00;99.90
8402;DHT22;4238;48.404;9.498;2023-04-06T11:07:39;13.00;99.90
8402;DHT22;4238;48.404;9.498;2023-04-06T11:10:07;13.90;99.90
8402;DHT22;4238;48.404;9.498;2023-04-06T11:12:34;14.90;99.90
8402;DHT22;4238;48.404;9.498;2023-04-06T11:15:03;13.90;99.90
8402;DHT22;4238;48.404;9.498;2023-04-06T11:17:32;14.30;99.90
8402;DHT22;4238;48.404;9.498;2023-04-06T11:20:00;13.80;99.90
8402;DHT22;4238;48.404;9.498;2023-04-06T11:22:28;13.20;99.90
8402;DHT22;4238;48.404;9.498;2023-04-06T11:25:04;13.90;99.90
8402;DHT22;4238;48.404;9.498;2023-04-06T11:27:33;14.30;99.90
8402;DHT22;4238;48.404;9.498;2023-04-06T11:30:00;14.00;99.90
8402;DHT22;4238;48.404;9.498;2023-04-06T11:32:28;14.10;99.90
8402;DHT22;4238;48.404;9.498;2023-04-06T11:34:57;14.60;99.90
8402;DHT22;4238;48.404;9.498;2023-04-06T11:37:27;15.00;99.90
8402;DHT22;4238;48.404;9.498;2023-04-06T11:39:55;15.70;99.90
8402;DHT22;4238;48.404;9.498;2023-04-06T11:42:23;15.10;99.90
8402;DHT22;4238;48.404;9.498;2023-04-06T11:44:51;14.90;99.90
8402;DHT22;4238;48.404;9.498;2023-04-06T11:47:19;15.10;99.90
8402;DHT22;4238;48.404;9.498;2023-04-06T11:49:47;15.10;99.90
8402;DHT22;4238;48.404;9.498;2023-04-06T11:52:16;15.10;99.90
8402;DHT22;4238;48.404;9.498;2023-04-06T11:54:46;15.50;99.90
8402;DHT22;4238;48.404;9.498;2023-04-06T11:57:14;14.80;99.90
8402;DHT22;4238;48.404;9.498;2023-04-06T11:59:42;14.40;99.90
8402;DHT22;4238;48.404;9.498;2023-04-06T12:02:09;14.00;99.90
8402;DHT22;4238;48.404;9.498;2023-04-06T12:04:37;13.90;99.90
8402;DHT22;4238;48.404;9.498;2023-04-06T12:07:04;14.20;99.90
8402;DHT22;4238;48.404;9.498;2023-04-06T12:09:31;14.30;99.90
8402;DHT22;4238;48.404;9.498;2023-04-06T12:12:01;14.60;99.90
8402;DHT22;4238;48.404;9.498;2023-04-06T12:14:29;14.20;99.90
8402;DHT22;4238;48.404;9.498;2023-04-06T12:16:56;13.80;99.90
8402;DHT22;4238;48.404;9.498;2023-04-06T12:19:24;14.50;99.90
8402;DHT22;4238;48.404;9.498;2023-04-06T12:21:52;14.40;99.90
8402;DHT22;4238;48.404;9.498;2023-04-06T12:24:19;14.50;99.90
8402;DHT22;4238;48.404;9.498;2023-04-06T12:26:46;14.00;99.90
8402;DHT22;4238;48.404;9.498;2023-04-06T12:29:15;14.60;99.90
8402;DHT22;4238;48.404;9.498;2023-04-06T12:31:42;15.10;99.90
8402;DHT22;4238;48.404;9.498;2023-04-06T12:34:10;15.30;99.90
8402;DHT22;4238;48.404;9.498;2023-04-06T12:36:38;15.50;99.90
8402;DHT22;4238;48.404;9.498;2023-04-06T12:39:05;15.90;99.90
8402;DHT22;4238;48.404;9.498;2023-04-06T12:41:32;15.70;99.90
8402;DHT22;4238;48.404;9.498;2023-04-06T12:44:00;15.80;99.90
8402;DHT22;4238;48.404;9.498;2023-04-06T12:46:29;15.80;99.90
8402;DHT22;4238;48.404;9.498;2023-04-06T12:48:57;16.20;99.90
8402;DHT22;4238;48.404;9.498;2023-04-06T12:51:26;15.70;99.90
8402;DHT22;4238;48.404;9.498;2023-04-06T12:53:54;15.40;99.90
8402;DHT22;4238;48.404;9.498;2023-04-06T12:56:21;15.60;99.90
8402;DHT22;4238;48.404;9.498;2023-04-06T12:58:48;14.90;99.90
8402;DHT22;4238;48.404;9.498;2023-04-06T13:01:15;14.70;99.90
8402;DHT22;4238;48.404;9.498;2023-04-06T13:03:43;14.50;99.90
8402;DHT22;4238;48.404;9.498;2023-04-06T13:06:11;13.30;99.90
8402;DHT22;4238;48.404;9.498;2023-04-06T13:08:38;13.80;99.90
8402;DHT22;4238;48.404;9.498;2023-04-06T13:11:06;13.50;99.90
8402;DHT22;4238;48.404;9.498;2023-04-06T13:13:34;13.10;99.90
8402;DHT22;4238;48.404;9.498;2023-04-06T13:16:03;12.70;99.90
8402;DHT22;4238;48.404;9.498;2023-04-06T13:18:31;12.80;99.90
8402;DHT22;4238;48.404;9.498;2023-04-06T13:21:00;12.60;99.90
8402;DHT22;4238;48.404;9.498;2023-04-06T13:23:27;12.90;99.90
8402;DHT22;4238;48.404;9.498;2023-04-06T13:25:57;13.40;99.90
8402;DHT22;4238;48.404;9.498;2023-04-06T13:28:25;13.80;99.90
8402;DHT22;4238;48.404;9.498;2023-04-06T13:30:53;14.70;99.90
8402;DHT22;4238;48.404;9.498;2023-04-06T13:33:20;15.20;99.90
8402;DHT22;4238;48.404;9.498;2023-04-06T13:35:47;15.50;99.90
8402;DHT22;4238;48.404;9.498;2023-04-06T13:38:16;15.70;99.90
8402;DHT22;4238;48.404;9.498;2023-04-06T13:40:43;15.10;99.90
8402;DHT22;4238;48.404;9.498;2023-04-06T13:43:11;15.30;99.90
8402;DHT22;4238;48.404;9.498;2023-04-06T13:45:38;15.40;99.90
8402;DHT22;4238;48.404;9.498;2023-04-06T13:48:05;15.20;99.90
8402;DHT22;4238;48.404;9.498;2023-04-06T13:50:33;15.10;99.90
8402;DHT22;4238;48.404;9.498;2023-04-06T13:53:00;15.20;99.90
8402;DHT22;4238;48.404;9.498;2023-04-06T13:55:28;14.50;99.90
8402;DHT22;4238;48.404;9.498;2023-04-06T13:57:56;14.70;99.90
8402;DHT22;4238;48.404;9.498;2023-04-06T14:00:24;15.00;99.90
8402;DHT22;4238;48.404;9.498;2023-04-06T14:02:53;15.40;99.90
8402;DHT22;4238;48.404;9.498;2023-04-06T14:05:19;14.80;99.90
8402;DHT22;4238;48.404;9.498;2023-04-06T14:07:46;14.60;99.90
8402;DHT22;4238;48.404;9.498;2023-04-06T14:10:13;14.40;99.90
8402;DHT22;4238;48.404;9.498;2023-04-06T14:12:43;14.70;99.90
8402;DHT22;4238;48.404;9.498;2023-04-06T14:15:11;14.80;99.90
8402;DHT22;4238;48.404;9.498;2023-04-06T14:17:38;15.20;99.90
8402;DHT22;4238;48.404;9.498;2023-04-06T14:20:06;15.00;99.90
8402;DHT22;4238;48.404;9.498;2023-04-06T14:22:33;15.40;99.90
8402;DHT22;4238;48.404;9.498;2023-04-06T14:25:00;14.60;99.90
8402;DHT22;4238;48.404;9.498;2023-04-06T14:27:27;14.80;99.90
8402;DHT22;4238;48.404;9.498;2023-04-06T14:29:56;15.20;99.90
8402;DHT22;4238;48.404;9.498;2023-04-06T14:32:22;15.60;99.90
8402;DHT22;4238;48.404;9.498;2023-04-06T14:34:50;15.60;99.90
8402;DHT22;4238;48.404;9.498;2023-04-06T14:37:17;15.50;99.90
8402;DHT22;4238;48.404;9.498;2023-04-06T14:39:44;15.40;99.90
8402;DHT22;4238;48.404;9.498;2023-04-06T14:42:11;15.00;99.90
8402;DHT22;4238;48.404;9.498;2023-04-06T14:44:38;15.10;99.90
8402;DHT22;4238;48.404;9.498;2023-04-06T14:47:09;14.90;99.90
8402;DHT22;4238;48.404;9.498;2023-04-06T14:49:36;15.00;99.90
8402;DHT22;4238;48.404;9.498;2023-04-06T14:52:04;15.00;99.90
8402;DHT22;4238;48.404;9.498;2023-04-06T14:54:31;14.90;99.90
8402;DHT22;4238;48.404;9.498;2023-04-06T14:56:58;14.80;99.90
8402;DHT22;4238;48.404;9.498;2023-04-06T14:59:26;14.60;99.90
8402;DHT22;4238;48.404;9.498;2023-04-06T15:01:53;14.50;99.90
8402;DHT22;4238;48.404;9.498;2023-04-06T15:04:21;14.20;99.90
8402;DHT22;4238;48.404;9.498;2023-04-06T15:06:48;14.10;99.90
8402;DHT22;4238;48.404;9.498;2023-04-06T15:09:15;13.60;99.90
8402;DHT22;4238;48.404;9.498;2023-04-06T15:11:42;13.60;99.90
8402;DHT22;4238;48.404;9.498;2023-04-06T15:14:09;13.60;99.90
8402;DHT22;4238;48.404;9.498;2023-04-06T15:16:35;13.30;99.90
8402;DHT22;4238;48.404;9.498;2023-04-06T15:19:02;13.40;99.90
8402;DHT22;4238;48.404;9.498;2023-04-06T15:21:31;13.30;99.90
8402;DHT22;4238;48.404;9.498;2023-04-06T15:23:58;13.30;99.90
8402;DHT22;4238;48.404;9.498;2023-04-06T15:26:25;13.20;99.90
8402;DHT22;4238;48.404;9.498;2023-04-06T15:28:52;13.20;99.90
8402;DHT22;4238;48.404;9.498;2023-04-06T15:31:19;13.00;99.90
8402;DHT22;4238;48.404;9.498;2023-04-06T15:33:46;12.70;99.90
8402;DHT22;4238;48.404;9.498;2023-04-06T15:36:22;12.70;99.90
8402;DHT22;4238;48.404;9.498;2023-04-06T15:38:51;12.70;99.90
8402;DHT22;4238;48.404;9.498;2023-04-06T15:41:18;12.60;99.90
8402;DHT22;4238;48.404;9.498;2023-04-06T15:43:45;12.50;99.90
8402;DHT22;4238;48.404;9.498;2023-04-06T15:46:12;12.60;99.90
8402;DHT22;4238;48.404;9.498;2023-04-06T15:48:40;12.70;99.90
8402;DHT22;4238;48.404;9.498;2023-04-06T15:51:07;12.50;99.90
8402;DHT22;4238;48.404;9.498;2023-04-06T15:53:35;12.30;99.90
8402;DHT22;4238;48.404;9.498;2023-04-06T15:56:05;12.30;99.90
8402;DHT22;4238;48.404;9.498;2023-04-06T15:58:33;12.10;99.90
8402;DHT22;4238;48.404;9.498;2023-04-06T16:01:00;12.20;99.90
8402;DHT22;4238;48.404;9.498;2023-04-06T16:03:28;12.30;99.90
8402;DHT22;4238;48.404;9.498;2023-04-06T16:05:55;12.20;99.90
8402;DHT22;4238;48.404;9.498;2023-04-06T16:08:22;11.80;99.90
8402;DHT22;4238;48.404;9.498;2023-04-06T16:10:48;11.60;99.90
8402;DHT22;4238;48.404;9.498;2023-04-06T16:13:17;11.70;99.90
8402;DHT22;4238;48.404;9.498;2023-04-06T16:15:44;11.60;99.90
8402;DHT22;4238;48.404;9.498;2023-04-06T16:18:15;11.70;99.90
8402;DHT22;4238;48.404;9.498;2023-04-06T16:20:42;11.70;99.90
8402;DHT22;4238;48.404;9.498;2023-04-06T16:23:09;11.80;99.90
8402;DHT22;4238;48.404;9.498;2023-04-06T16:25:36;11.80;99.90
8402;DHT22;4238;48.404;9.498;2023-04-06T16:28:03;11.70;99.90
8402;DHT22;4238;48.404;9.498;2023-04-06T16:30:35;11.40;99.90
8402;DHT22;4238;48.404;9.498;2023-04-06T16:33:02;11.10;99.90
8402;DHT22;4238;48.404;9.498;2023-04-06T16:35:29;11.00;99.90
8402;DHT22;4238;48.404;9.498;2023-04-06T16:37:57;11.20;99.90
8402;DHT22;4238;48.404;9.498;2023-04-06T16:40:25;10.90;99.90
8402;DHT22;4238;48.404;9.498;2023-04-06T16:42:52;10.90;99.90
8402;DHT22;4238;48.404;9.498;2023-04-06T16:45:19;11.10;99.90
8402;DHT22;4238;48.404;9.498;2023-04-06T16:47:48;11.10;99.90
8402;DHT22;4238;48.404;9.498;2023-04-06T16:50:15;11.10;99.90
8402;DHT22;4238;48.404;9.498;2023-04-06T16:52:43;11.20;99.90
8402;DHT22;4238;48.404;9.498;2023-04-06T16:55:10;11.20;99.90
8402;DHT22;4238;48.404;9.498;2023-04-06T16:57:37;11.00;99.90
8402;DHT22;4238;48.404;9.498;2023-04-06T17:00:05;11.10;99.90
8402;DHT22;4238;48.404;9.498;2023-04-06T17:02:33;11.10;99.90
8402;DHT22;4238;48.404;9.498;2023-04-06T17:05:03;11.10;99.90
8402;DHT22;4238;48.404;9.498;2023-04-06T17:07:30;11.00;99.90
8402;DHT22;4238;48.404;9.498;2023-04-06T17:09:58;11.00;99.90
8402;DHT22;4238;48.404;9.498;2023-04-06T17:12:26;10.90;99.90
8402;DHT22;4238;48.404;9.498;2023-04-06T17:14:53;10.90;99.90
8402;DHT22;4238;48.404;9.498;2023-04-06T17:17:20;10.80;99.90
8402;DHT22;4238;48.404;9.498;2023-04-06T17:19:47;10.60;99.90
8402;DHT22;4238;48.404;9.498;2023-04-06T17:22:16;10.40;99.90
8402;DHT22;4238;48.404;9.498;2023-04-06T17:24:46;10.40;99.90
8402;DHT22;4238;48.404;9.498;2023-04-06T17:27:13;10.30;99.90
8402;DHT22;4238;48.404;9.498;2023-04-06T17:29:40;10.20;99.90
8402;DHT22;4238;48.404;9.498;2023-04-06T17:32:07;9.90;99.90
8402;DHT22;4238;48.404;9.498;2023-04-06T17:34:34;9.70;99.90
8402;DHT22;4238;48.404;9.498;2023-04-06T17:37:01;9.40;99.90
8402;DHT22;4238;48.404;9.498;2023-04-06T17:39:29;9.30;99.90
8402;DHT22;4238;48.404;9.498;2023-04-06T17:41:56;9.20;99.90
8402;DHT22;4238;48.404;9.498;2023-04-06T17:44:24;9.10;99.90
8402;DHT22;4238;48.404;9.498;2023-04-06T17:46:51;8.80;99.90
8402;DHT22;4238;48.404;9.498;2023-04-06T17:49:18;8.60;99.90
8402;DHT22;4238;48.404;9.498;2023-04-06T17:51:45;8.40;99.90
8402;DHT22;4238;48.404;9.498;2023-04-06T17:54:12;8.20;99.90
8402;DHT22;4238;48.404;9.498;2023-04-06T17:56:40;8.20;99.90
8402;DHT22;4238;48.404;9.498;2023-04-06T17:59:07;8.10;99.90
8402;DHT22;4238;48.404;9.498;2023-04-06T18:01:36;7.90;99.90
8402;DHT22;4238;48.404;9.498;2023-04-06T18:04:02;7.70;99.90
8402;DHT22;4238;48.404;9.498;2023-04-06T18:06:29;7.70;99.90
8402;DHT22;4238;48.404;9.498;2023-04-06T18:08:58;7.80;99.90
8402;DHT22;4238;48.404;9.498;2023-04-06T18:11:25;7.90;99.90
8402;DHT22;4238;48.404;9.498;2023-04-06T18:13:56;8.10;99.90
8402;DHT22;4238;48.404;9.498;2023-04-06T18:16:23;8.20;99.90
8402;DHT22;4238;48.404;9.498;2023-04-06T18:18:50;8.40;99.90
8402;DHT22;4238;48.404;9.498;2023-04-06T18:21:18;8.50;99.90
8402;DHT22;4238;48.404;9.498;2023-04-06T18:23:45;8.60;99.90
8402;DHT22;4238;48.404;9.498;2023-04-06T18:26:16;8.70;99.90
8402;DHT22;4238;48.404;9.498;2023-04-06T18:28:43;8.70;99.90
8402;DHT22;4238;48.404;9.498;2023-04-06T18:31:12;8.80;99.90
8402;DHT22;4238;48.404;9.498;2023-04-06T18:33:39;8.80;99.90
8402;DHT22;4238;48.404;9.498;2023-04-06T18:36:06;8.70;99.90
8402;DHT22;4238;48.404;9.498;2023-04-06T18:38:34;8.60;99.90
8402;DHT22;4238;48.404;9.498;2023-04-06T18:41:03;8.70;99.90
8402;DHT22;4238;48.404;9.498;2023-04-06T18:43:30;8.70;99.90
8402;DHT22;4238;48.404;9.498;2023-04-06T18:45:57;8.70;99.90
8402;DHT22;4238;48.404;9.498;2023-04-06T18:48:26;8.70;99.90
8402;DHT22;4238;48.404;9.498;2023-04-06T18:50:53;8.80;99.90
8402;DHT22;4238;48.404;9.498;2023-04-06T18:53:22;8.70;99.90
8402;DHT22;4238;48.404;9.498;2023-04-06T18:55:49;8.70;99.90
8402;DHT22;4238;48.404;9.498;2023-04-06T18:58:16;8.70;99.90
8402;DHT22;4238;48.404;9.498;2023-04-06T19:00:43;8.70;99.90
8402;DHT22;4238;48.404;9.498;2023-04-06T19:03:10;8.70;99.90
8402;DHT22;4238;48.404;9.498;2023-04-06T19:05:40;8.70;99.90
8402;DHT22;4238;48.404;9.498;2023-04-06T19:08:07;8.60;99.90
8402;DHT22;4238;48.404;9.498;2023-04-06T19:10:35;8.60;99.90
8402;DHT22;4238;48.404;9.498;2023-04-06T19:13:03;8.50;99.90
8402;DHT22;4238;48.404;9.498;2023-04-06T19:15:30;8.60;99.90
8402;DHT22;4238;48.404;9.498;2023-04-06T19:17:57;8.60;99.90
8402;DHT22;4238;48.404;9.498;2023-04-06T19:20:24;8.50;99.90
8402;DHT22;4238;48.404;9.498;2023-04-06T19:22:52;8.50;99.90
8402;DHT22;4238;48.404;9.498;2023-04-06T19:25:19;8.50;99.90
8402;DHT22;4238;48.404;9.498;2023-04-06T19:27:46;8.40;99.90
8402;DHT22;4238;48.404;9.498;2023-04-06T19:30:13;8.40;99.90
8402;DHT22;4238;48.404;9.498;2023-04-06T19:32:40;8.30;99.90
8402;DHT22;4238;48.404;9.498;2023-04-06T19:35:07;8.20;99.90
8402;DHT22;4238;48.404;9.498;2023-04-06T19:37:38;8.10;99.90
8402;DHT22;4238;48.404;9.498;2023-04-06T19:40:07;8.10;99.90
8402;DHT22;4238;48.404;9.498;2023-04-06T19:42:35;8.00;99.90
8402;DHT22;4238;48.404;9.498;2023-04-06T19:45:03;8.10;99.90
8402;DHT22;4238;48.404;9.498;2023-04-06T19:47:30;8.20;99.90
8402;DHT22;4238;48.404;9.498;2023-04-06T19:49:57;8.10;99.90
8402;DHT22;4238;48.404;9.498;2023-04-06T19:52:24;8.10;99.90
8402;DHT22;4238;48.404;9.498;2023-04-06T19:54:51;8.10;99.90
8402;DHT22;4238;48.404;9.498;2023-04-06T19:57:19;8.20;99.90
8402;DHT22;4238;48.404;9.498;2023-04-06T19:59:47;8.20;99.90
8402;DHT22;4238;48.404;9.498;2023-04-06T20:02:14;8.30;99.90
8402;DHT22;4238;48.404;9.498;2023-04-06T20:04:41;8.30;99.90
8402;DHT22;4238;48.404;9.498;2023-04-06T20:07:08;8.30;99.90
8402;DHT22;4238;48.404;9.498;2023-04-06T20:09:35;8.00;99.90
8402;DHT22;4238;48.404;9.498;2023-04-06T20:12:02;7.90;99.90
8402;DHT22;4238;48.404;9.498;2023-04-06T20:14:31;8.00;99.90
8402;DHT22;4238;48.404;9.498;2023-04-06T20:16:57;8.00;99.90
8402;DHT22;4238;48.404;9.498;2023-04-06T20:19:25;8.10;99.90
8402;DHT22;4238;48.404;9.498;2023-04-06T20:21:52;8.10;99.90
8402;DHT22;4238;48.404;9.498;2023-04-06T20:24:19;8.00;99.90
8402;DHT22;4238;48.404;9.498;2023-04-06T20:26:45;8.00;99.90
8402;DHT22;4238;48.404;9.498;2023-04-06T20:29:12;7.80;99.90
8402;DHT22;4238;48.404;9.498;2023-04-06T20:31:41;7.80;99.90
8402;DHT22;4238;48.404;9.498;2023-04-06T20:34:08;7.80;99.90
8402;DHT22;4238;48.404;9.498;2023-04-06T20:36:35;7.80;99.90
8402;DHT22;4238;48.404;9.498;2023-04-06T20:39:01;7.90;99.90
8402;DHT22;4238;48.404;9.498;2023-04-06T20:41:28;8.00;99.90
8402;DHT22;4238;48.404;9.498;2023-04-06T20:43:55;8.00;99.90
8402;DHT22;4238;48.404;9.498;2023-04-06T20:46:22;8.00;99.90
8402;DHT22;4238;48.404;9.498;2023-04-06T20:48:51;7.90;99.90
8402;DHT22;4238;48.404;9.498;2023-04-06T20:51:18;7.60;99.90
8402;DHT22;4238;48.404;9.498;2023-04-06T20:53:47;7.60;99.90
8402;DHT22;4238;48.404;9.498;2023-04-06T20:56:14;7.60;99.90
8402;DHT22;4238;48.404;9.498;2023-04-06T20:58:41;7.70;99.90
8402;DHT22;4238;48.404;9.498;2023-04-06T21:01:12;7.30;99.90
8402;DHT22;4238;48.404;9.498;2023-04-06T21:03:39;7.20;99.90
8402;DHT22;4238;48.404;9.498;2023-04-06T21:06:08;7.30;99.90
8402;DHT22;4238;48.404;9.498;2023-04-06T21:08:36;7.40;99.90
8402;DHT22;4238;48.404;9.498;2023-04-06T21:11:03;7.20;99.90
8402;DHT22;4238;48.404;9.498;2023-04-06T21:13:30;7.10;99.90
8402;DHT22;4238;48.404;9.498;2023-04-06T21:15:57;7.10;99.90
8402;DHT22;4238;48.404;9.498;2023-04-06T21:18:25;6.80;99.90
8402;DHT22;4238;48.404;9.498;2023-04-06T21:20:52;6.70;99.90
8402;DHT22;4238;48.404;9.498;2023-04-06T21:23:20;6.60;99.90
8402;DHT22;4238;48.404;9.498;2023-04-06T21:25:47;6.60;99.90
8402;DHT22;4238;48.404;9.498;2023-04-06T21:28:16;6.60;99.90
8402;DHT22;4238;48.404;9.498;2023-04-06T21:30:43;6.60;99.90
8402;DHT22;4238;48.404;9.498;2023-04-06T21:33:10;6.60;99.90
8402;DHT22;4238;48.404;9.498;2023-04-06T21:35:37;6.80;1.00
8402;DHT22;4238;48.404;9.498;2023-04-06T21:38:05;7.00;1.00
8402;DHT22;4238;48.404;9.498;2023-04-06T21:40:33;7.10;1.00
8402;DHT22;4238;48.404;9.498;2023-04-06T21:43:00;6.80;1.00
8402;DHT22;4238;48.404;9.498;2023-04-06T21:45:27;6.80;99.90
8402;DHT22;4238;48.404;9.498;2023-04-06T21:47:54;6.80;1.00
8402;DHT22;4238;48.404;9.498;2023-04-06T21:50:21;6.80;1.00
8402;DHT22;4238;48.404;9.498;2023-04-06T21:52:48;6.80;1.00
8402;DHT22;4238;48.404;9.498;2023-04-06T21:55:14;6.70;99.90
8402;DHT22;4238;48.404;9.498;2023-04-06T21:57:43;6.70;3.90